createdAt,value
2022-12-15T00:08:12.877Z,67.88
2022-12-15T00:13:15.743Z,67.65
2022-12-15T00:18:19.674Z,67.40
2022-12-15T00:23:28.524Z,67.63
2022-12-15T00:33:51.543Z,67.73
2022-12-15T00:38:58.062Z,67.71
2022-12-15T00:44:03.664Z,67.59
2022-12-15T00:49:13.407Z,67.62
2022-12-15T01:05:15.082Z,68.01
2022-12-15T01:10:19.708Z,68.14
2022-12-15T01:15:26.995Z,68.17
2022-12-15T01:31:19.592Z,67.87
2022-12-15T01:36:22.885Z,67.77
2022-12-15T01:46:50.128Z,67.83
2022-12-15T01:51:59.852Z,67.95
2022-12-15T01:57:09.653Z,68.00
2022-12-15T02:18:38.393Z,67.89
2022-12-15T02:24:06.257Z,67.60
2022-12-15T02:29:33.965Z,67.47
2022-12-15T02:34:50.253Z,67.47
2022-12-15T02:39:53.061Z,67.49
2022-12-15T02:45:01.383Z,67.39
2022-12-15T02:50:39.224Z,67.51
2022-12-15T02:55:53.152Z,67.72
2022-12-15T03:01:01.155Z,67.73
2022-12-15T03:06:14.113Z,67.76
2022-12-15T03:16:51.340Z,68.35
2022-12-15T03:21:54.767Z,68.70
2022-12-15T03:26:58.635Z,68.92
2022-12-15T03:32:10.433Z,68.98
2022-12-15T03:37:18.500Z,68.83
2022-12-15T03:42:26.907Z,68.70
2022-12-15T03:47:49.451Z,68.75
2022-12-15T03:53:00.082Z,68.76
2022-12-15T03:58:07.750Z,68.40
2022-12-15T04:03:19.600Z,68.19
2022-12-15T04:19:03.207Z,68.46
2022-12-15T09:26:10.527Z,68.19
2022-12-15T09:31:19.698Z,67.95
2022-12-15T09:41:52.810Z,67.68
2022-12-15T09:47:08.651Z,67.77
2022-12-15T09:52:14.044Z,67.87
2022-12-15T09:57:31.199Z,67.23
2022-12-15T10:03:06.205Z,66.71
2022-12-15T10:08:09.229Z,66.26
2022-12-15T10:18:43.605Z,63.49
2022-12-15T10:23:47.464Z,59.50
2022-12-15T10:34:36.991Z,59.52
2022-12-15T10:39:41.686Z,59.87
2022-12-15T10:44:50.702Z,56.35
2022-12-15T10:55:50.019Z,59.90
2022-12-15T11:06:31.413Z,59.96
2022-12-15T11:11:37.713Z,59.83
2022-12-15T11:22:17.354Z,61.66
2022-12-15T11:27:31.251Z,62.18
2022-12-15T11:32:39.462Z,62.82
2022-12-15T11:37:52.191Z,63.31
2022-12-15T11:43:06.677Z,64.19
2022-12-15T11:48:15.271Z,64.64
2022-12-15T11:53:54.538Z,64.92
2022-12-15T11:59:24.582Z,65.39
2022-12-15T12:04:33.185Z,65.79
2022-12-15T12:09:48.656Z,66.01
2022-12-15T12:15:09.223Z,66.33
2022-12-15T12:20:18.943Z,66.70
2022-12-15T12:25:28.030Z,66.71
2022-12-15T12:30:40.990Z,66.70
2022-12-15T12:35:50.761Z,66.92
2022-12-15T12:41:07.874Z,67.22
2022-12-15T12:46:17.734Z,67.48
2022-12-15T12:51:26.347Z,67.81
2022-12-15T12:56:43.179Z,68.04
2022-12-15T13:07:32.286Z,68.51
2022-12-15T13:12:52.297Z,68.54
2022-12-15T13:18:01.060Z,68.82
2022-12-15T13:23:43.090Z,68.82
2022-12-15T13:28:52.901Z,68.73
2022-12-15T13:40:25.886Z,69.16
2022-12-15T13:51:32.664Z,69.49
2022-12-15T13:56:50.721Z,69.88
2022-12-15T14:01:56.668Z,70.20
2022-12-15T14:07:07.515Z,70.62
2022-12-15T14:12:15.403Z,70.49
2022-12-15T14:17:20.352Z,70.82
2022-12-15T14:22:31.149Z,70.85
2022-12-15T14:27:34.648Z,70.73
2022-12-15T14:32:37.774Z,71.00
2022-12-15T14:37:46.079Z,71.01
2022-12-15T14:48:40.673Z,71.10
2022-12-15T14:53:50.106Z,71.17
2022-12-15T15:03:10.165Z,70.97
2022-12-15T15:04:35.399Z,70.21
2022-12-15T15:15:04.039Z,69.93
2022-12-15T15:25:41.140Z,69.73
2022-12-15T15:36:11.934Z,69.84
2022-12-15T15:41:20.092Z,69.79
2022-12-15T15:46:24.969Z,69.82
2022-12-15T15:51:34.464Z,69.70
2022-12-15T15:56:37.191Z,69.94
2022-12-15T16:07:01.719Z,69.83
2022-12-15T16:12:04.707Z,69.86
2022-12-15T16:17:10.626Z,70.05
2022-12-15T16:22:22.792Z,70.05
2022-12-15T16:27:25.731Z,70.06
2022-12-15T16:32:28.493Z,70.21
2022-12-15T16:37:39.592Z,70.40
2022-12-15T16:42:42.679Z,70.56
2022-12-15T16:47:45.890Z,70.74
2022-12-15T16:52:55.633Z,70.91
2022-12-15T17:03:23.849Z,70.72
2022-12-15T17:13:52.402Z,70.62
2022-12-15T17:18:55.360Z,70.78
2022-12-15T17:24:02.232Z,70.93
2022-12-15T17:39:43.247Z,70.83
2022-12-15T17:44:46.298Z,71.10
2022-12-15T17:49:50.067Z,71.30
2022-12-15T17:54:58.850Z,71.18
2022-12-15T18:10:57.419Z,70.92
2022-12-15T18:16:01.567Z,70.92
2022-12-15T18:26:34.662Z,70.90
2022-12-15T18:31:37.859Z,71.13
2022-12-15T18:42:00.198Z,71.25
2022-12-15T18:47:03.244Z,71.30
2022-12-15T18:52:06.361Z,71.24
2022-12-15T18:57:26.860Z,71.38
2022-12-15T19:02:29.884Z,71.26
2022-12-15T19:07:32.928Z,71.49
2022-12-15T19:12:41.067Z,71.39
2022-12-15T19:17:44.050Z,71.36
2022-12-15T19:22:48.923Z,71.45
2022-12-15T19:27:59.911Z,71.66
2022-12-15T19:33:02.995Z,71.54
2022-12-15T19:38:07.388Z,71.60
2022-12-15T19:43:17.210Z,71.67
2022-12-15T19:48:23.702Z,71.50
2022-12-15T19:58:50.808Z,71.37
2022-12-15T20:03:54.513Z,71.52
2022-12-15T20:14:20.479Z,71.50
2022-12-15T20:24:43.576Z,71.47
2022-12-15T20:29:46.893Z,71.53
2022-12-15T20:40:19.010Z,71.58
2022-12-15T20:45:24.340Z,71.62
2022-12-15T20:50:33.637Z,71.81
2022-12-15T21:01:00.046Z,71.65
2022-12-15T21:11:26.895Z,71.70
2022-12-15T21:21:55.492Z,71.59
2022-12-15T21:26:58.716Z,71.46
2022-12-15T21:32:02.677Z,71.39
2022-12-15T21:42:25.322Z,71.26
2022-12-15T21:47:31.239Z,71.25
2022-12-15T21:52:34.025Z,71.05
2022-12-15T21:57:42.242Z,70.73
2022-12-15T22:02:45.906Z,70.91
2022-12-15T22:07:50.529Z,70.87
2022-12-15T22:13:00.058Z,71.03
2022-12-15T22:39:37.010Z,71.17
2022-12-15T22:44:40.179Z,71.35
2022-12-15T22:49:44.616Z,71.39
2022-12-15T22:54:52.751Z,71.47
2022-12-15T23:00:02.355Z,71.72
2022-12-15T23:05:06.514Z,71.87
2022-12-15T23:10:18.326Z,71.90
2022-12-15T23:20:46.062Z,71.77
2022-12-15T23:25:48.840Z,71.94
2022-12-15T23:30:52.644Z,72.15
2022-12-15T23:36:02.859Z,72.21
2022-12-15T23:46:27.322Z,72.11
2022-12-15T23:51:30.167Z,72.21
2022-12-15T23:56:32.974Z,72.40
